Time;durP1;ratioP1;P1;durP2;ratioP2;P2;SDS_P1;SDS_P2;PMS_P1;PMS_P2;Temp;Humidity;BMP_temperature;BMP_pressure;BME280_temperature;BME280_humidity;BME280_pressure;Samples;Min_cycle;Max_cycle;Signal;HPM_P1;HPM_P2
2022/10/15 00:01:21;;;;;;;5.00;3.00;;;;;;;10.37;100.00;100685.66;4974901;28;20026;-83
2022/10/15 00:03:47;;;;;;;4.97;3.07;;;;;;;10.32;100.00;100690.03;4975208;28;20029;-83
2022/10/15 00:06:15;;;;;;;6.37;3.37;;;;;;;10.30;100.00;100689.22;4974886;28;20443;-83
2022/10/15 00:08:41;;;;;;;4.93;3.05;;;;;;;10.26;100.00;100685.81;4974477;28;20046;-83
2022/10/15 00:11:10;;;;;;;5.63;3.30;;;;;;;10.23;100.00;100691.06;4975017;28;20089;-83
2022/10/15 00:13:36;;;;;;;5.20;3.10;;;;;;;10.19;100.00;100695.41;4974355;28;20494;-82
2022/10/15 00:16:02;;;;;;;5.27;3.00;;;;;;;10.19;100.00;100698.00;4974310;28;20030;-83
2022/10/15 00:18:28;;;;;;;4.80;2.95;;;;;;;10.17;100.00;100688.56;4975234;28;20534;-83
2022/10/15 00:20:53;;;;;;;4.57;2.90;;;;;;;10.16;100.00;100689.44;4974734;28;20046;-83
2022/10/15 00:23:19;;;;;;;4.27;2.97;;;;;;;10.16;100.00;100689.44;4974524;28;20080;-83
2022/10/15 00:25:44;;;;;;;3.80;2.47;;;;;;;10.18;100.00;100692.88;4975023;28;20031;-83
2022/10/15 00:28:09;;;;;;;4.20;2.70;;;;;;;10.20;100.00;100691.94;4973258;28;20023;-83
2022/10/15 00:30:35;;;;;;;4.70;2.77;;;;;;;10.23;100.00;100690.19;4974728;28;20022;-83
2022/10/15 00:33:00;;;;;;;4.47;2.63;;;;;;;10.24;100.00;100692.78;4974465;28;20191;-83
2022/10/15 00:35:25;;;;;;;3.53;2.70;;;;;;;10.26;100.00;100697.94;4973853;28;20027;-83
2022/10/15 00:37:50;;;;;;;4.07;2.50;;;;;;;10.28;100.00;100691.84;4974341;28;20027;-83
2022/10/15 00:40:16;;;;;;;3.43;2.50;;;;;;;10.32;100.00;100695.22;4974867;28;20023;-83
2022/10/15 00:42:41;;;;;;;5.03;3.17;;;;;;;10.33;100.00;100696.94;4973919;28;20041;-83
2022/10/15 00:45:14;;;;;;;4.30;2.77;;;;;;;10.34;100.00;100696.94;4974476;28;20031;-83
2022/10/15 00:47:44;;;;;;;3.97;2.63;;;;;;;10.38;100.00;100694.31;4974585;28;20026;-83
2022/10/15 00:50:14;;;;;;;4.88;2.80;;;;;;;10.41;100.00;100696.84;4973210;28;20085;-83
2022/10/15 00:52:56;;;;;;;3.95;2.55;;;;;;;10.45;100.00;100698.53;4974661;28;20051;-83
2022/10/15 00:55:27;;;;;;;4.30;2.60;;;;;;;10.49;100.00;100694.97;4974752;28;20065;-84
2022/10/15 00:57:54;;;;;;;3.35;2.42;;;;;;;10.52;100.00;100702.72;4973429;28;20031;-83
2022/10/15 01:00:19;;;;;;;;;;;;;;;10.55;100.00;100699.19;4974720;28;20047;-84
2022/10/15 01:02:45;;;;;;;6.93;4.00;;;;;;;10.58;100.00;100694.84;4974016;28;20353;-83
2022/10/15 01:05:11;;;;;;;7.60;3.57;;;;;;;10.62;100.00;100693.88;4973418;28;20031;-83
2022/10/15 01:07:37;;;;;;;4.40;2.90;;;;;;;10.65;100.00;100696.44;4974292;28;20039;-83
2022/10/15 01:10:05;;;;;;;5.10;2.97;;;;;;;10.71;100.00;100697.19;4974240;28;20048;-83
2022/10/15 01:13:25;;;;;;;3.97;2.70;;;;;;;10.74;100.00;100692.81;4973266;28;20027;-83
2022/10/15 01:16:37;;;;;;;4.90;2.95;;;;;;;10.79;100.00;100693.56;4933525;29;20333;-83
2022/10/15 01:19:22;;;;;;;6.28;3.50;;;;;;;10.82;100.00;100682.25;4894845;29;20035;-83
2022/10/15 01:22:07;;;;;;;5.65;3.30;;;;;;;10.86;100.00;100680.50;4895767;29;20040;-83
2022/10/15 01:25:02;;;;;;;7.28;4.10;;;;;;;10.88;100.00;100679.56;4956234;28;20039;-83
2022/10/15 01:27:32;;;;;;;5.35;3.30;;;;;;;10.90;100.00;100672.63;4974134;28;20043;-83
2022/10/15 01:30:22;;;;;;;5.40;3.55;;;;;;;10.93;100.00;100667.34;4973627;28;20034;-83
2022/10/15 01:33:12;;;;;;;6.40;3.78;;;;;;;10.98;100.00;100664.66;4973553;28;20026;-83
2022/10/15 01:35:53;;;;;;;11.73;6.15;;;;;;;11.01;100.00;100654.22;4973959;28;20054;-84
2022/10/15 01:38:34;;;;;;;11.68;6.07;;;;;;;11.04;100.00;100659.34;4973437;28;20118;-83
2022/10/15 01:41:07;;;;;;;12.10;6.05;;;;;;;11.06;100.00;100657.59;4977650;28;20458;-83
2022/10/15 01:43:44;;;;;;;7.93;4.68;;;;;;;11.09;100.00;100649.69;4977957;28;20034;-83
2022/10/15 01:46:15;;;;;;;7.65;4.40;;;;;;;11.12;100.00;100661.78;4975726;28;20042;-83
2022/10/15 01:48:41;;;;;;;8.73;5.05;;;;;;;11.15;100.00;100661.72;4977930;28;20038;-83
2022/10/15 01:51:09;;;;;;;12.02;6.20;;;;;;;11.18;100.00;100661.66;4977527;28;20133;-83
2022/10/15 01:53:36;;;;;;;10.70;6.07;;;;;;;11.19;100.00;100654.72;4976977;28;20070;-83
2022/10/15 01:56:13;;;;;;;9.55;5.18;;;;;;;11.21;100.00;100645.13;4977164;28;20030;-83
2022/10/15 01:58:42;;;;;;;6.63;4.18;;;;;;;11.21;100.00;100661.59;4976664;28;20045;-83
2022/10/15 02:01:07;;;;;;;14.40;7.68;;;;;;;11.24;100.00;100647.69;4975764;28;20400;-83
2022/10/15 02:03:43;;;;;;;14.13;7.73;;;;;;;11.27;100.00;100645.03;4977076;28;20082;-84
2022/10/15 02:06:16;;;;;;;13.88;7.43;;;;;;;11.30;100.00;100642.38;4976536;28;20118;-83
2022/10/15 02:08:49;;;;;;;13.52;7.25;;;;;;;11.33;100.00;100646.63;4976864;28;20066;-83
2022/10/15 02:11:16;;;;;;;11.40;6.10;;;;;;;11.34;100.00;100644.00;4977150;28;20035;-83
2022/10/15 02:13:49;;;;;;;;;;;;;;;11.36;100.00;100641.38;4977226;28;20032;-83
2022/10/15 02:16:23;;;;;;;9.93;5.65;;;;;;;11.38;100.00;100640.44;4977313;28;19992;-83
2022/10/15 02:19:05;;;;;;;7.45;4.78;;;;;;;11.38;100.00;100635.25;4977380;28;20030;-84
2022/10/15 02:21:59;;;;;;;6.93;4.35;;;;;;;11.40;100.00;100637.81;4976429;28;20023;-83
2022/10/15 02:24:32;;;;;;;7.72;4.40;;;;;;;11.41;100.00;100629.13;4977140;28;20030;-83
2022/10/15 02:27:00;;;;;;;6.35;4.07;;;;;;;11.41;100.00;100623.94;4976781;28;20110;-83
2022/10/15 02:29:31;;;;;;;7.82;4.95;;;;;;;11.42;100.00;100633.44;4976277;28;20026;-83
2022/10/15 02:31:59;;;;;;;10.15;5.95;;;;;;;11.41;100.00;100621.34;4976488;28;20027;-83
2022/10/15 02:34:28;;;;;;;8.68;5.10;;;;;;;11.42;100.00;100634.31;4977054;28;20042;-84
2022/10/15 02:36:56;;;;;;;11.27;6.60;;;;;;;11.42;100.00;100621.31;4975568;28;20081;-83
2022/10/15 02:39:23;;;;;;;11.93;6.43;;;;;;;11.42;100.00;100617.84;4976989;28;20019;-83
2022/10/15 02:41:50;;;;;;;12.50;6.60;;;;;;;11.42;100.00;100612.66;4975655;28;20122;-83
2022/10/15 02:44:16;;;;;;;10.23;5.80;;;;;;;11.43;100.00;100614.38;4976934;28;20031;-83
2022/10/15 02:46:41;;;;;;;11.23;5.77;;;;;;;11.44;100.00;100605.69;4976895;28;20034;-83
2022/10/15 02:49:06;;;;;;;8.13;5.00;;;;;;;11.45;100.00;100604.78;4975646;28;20031;-82
2022/10/15 02:51:33;;;;;;;8.73;5.23;;;;;;;11.46;100.00;100601.31;4975316;28;20550;-83
2022/10/15 02:53:59;;;;;;;8.30;4.80;;;;;;;11.46;100.00;100588.31;4976278;28;20105;-83
2022/10/15 02:56:25;;;;;;;8.55;4.97;;;;;;;11.47;100.00;100591.75;4975587;28;20030;-84
2022/10/15 02:58:50;;;;;;;7.67;4.77;;;;;;;11.47;100.00;100584.84;4976262;28;20379;-83
2022/10/15 03:01:19;;;;;;;8.57;4.87;;;;;;;11.48;100.00;100585.69;4976312;28;20031;-83
2022/10/15 03:03:44;;;;;;;7.43;4.30;;;;;;;11.49;100.00;100587.38;4976066;28;20037;-83
2022/10/15 03:06:09;;;;;;;7.73;4.30;;;;;;;11.49;100.00;100579.59;4976046;28;20039;-83
2022/10/15 03:08:35;;;;;;;6.60;4.23;;;;;;;11.49;100.00;100583.03;4976360;28;20030;-83
2022/10/15 03:11:01;;;;;;;7.17;4.37;;;;;;;11.49;100.00;100583.03;4975305;28;20023;-83
2022/10/15 03:13:27;;;;;;;6.67;3.93;;;;;;;11.49;100.00;100585.63;4976300;28;20118;-83
2022/10/15 03:15:52;;;;;;;4.70;3.40;;;;;;;11.51;100.00;100583.00;4975864;28;20451;-83
2022/10/15 03:18:18;;;;;;;4.47;3.10;;;;;;;11.51;100.00;100586.44;4975651;28;20027;-83
2022/10/15 03:20:43;;;;;;;7.07;4.43;;;;;;;11.50;100.00;100582.13;4975760;28;20027;-83
2022/10/15 03:23:08;;;;;;;10.57;5.60;;;;;;;11.49;100.00;100577.81;4976045;28;20023;-84
2022/10/15 03:25:34;;;;;;;7.30;4.60;;;;;;;11.50;100.00;100579.53;4975360;28;20041;-83
2022/10/15 03:27:59;;;;;;;8.37;4.53;;;;;;;11.50;100.00;100583.91;4975730;28;20096;-84
2022/10/15 03:30:24;;;;;;;9.13;4.60;;;;;;;11.50;100.00;100584.75;4976443;28;20123;-84
2022/10/15 03:32:50;;;;;;;6.73;3.97;;;;;;;11.51;100.00;100588.22;4974583;28;20418;-83
2022/10/15 03:35:15;;;;;;;5.43;3.50;;;;;;;11.52;100.00;100593.34;4975803;28;20023;-84
2022/10/15 03:37:41;;;;;;;5.37;3.37;;;;;;;11.53;100.00;100583.84;4975599;28;20018;-84
2022/10/15 03:40:07;;;;;;;4.93;3.43;;;;;;;11.53;100.00;100584.69;4974787;28;20065;-83
2022/10/15 03:42:32;;;;;;;6.07;3.33;;;;;;;11.55;100.00;100587.22;4975842;28;20041;-84
2022/10/15 03:44:57;;;;;;;6.40;4.03;;;;;;;11.55;100.00;100579.44;4974737;28;20111;-83
2022/10/15 03:47:23;;;;;;;4.93;3.00;;;;;;;11.56;100.00;100581.13;4975959;28;20027;-83
2022/10/15 03:49:48;;;;;;;4.57;3.17;;;;;;;11.57;100.00;100575.06;4975333;28;20472;-83
2022/10/15 03:52:14;;;;;;;7.97;4.60;;;;;;;11.57;100.00;100572.47;4974510;28;20046;-83
2022/10/15 03:54:39;;;;;;;8.00;4.50;;;;;;;11.58;100.00;100566.38;4975326;28;20539;-83
2022/10/15 03:57:05;;;;;;;8.80;4.37;;;;;;;11.58;100.00;100563.78;4975150;28;20114;-83
2022/10/15 03:59:30;;;;;;;13.47;6.77;;;;;;;11.61;100.00;100568.03;4974621;28;20058;-84
2022/10/15 04:01:55;;;;;;;10.53;5.73;;;;;;;11.61;100.00;100562.84;4975225;28;20027;-84
2022/10/15 04:04:20;;;;;;;11.90;5.97;;;;;;;11.60;100.00;100564.59;4975363;28;20085;-83
2022/10/15 04:06:46;;;;;;;11.13;5.70;;;;;;;11.60;100.00;100567.19;4974562;28;20117;-83
2022/10/15 04:09:12;;;;;;;9.13;4.97;;;;;;;11.59;100.00;100562.88;4975072;28;20030;-83
2022/10/15 04:11:38;;;;;;;8.75;5.00;;;;;;;11.59;100.00;100568.09;4975177;28;20476;-83
2022/10/15 04:14:04;;;;;;;8.23;5.00;;;;;;;11.57;100.00;100569.84;4974596;28;20050;-83
2022/10/15 04:16:29;;;;;;;8.03;4.37;;;;;;;11.57;100.00;100573.31;4975122;28;20070;-83
2022/10/15 04:18:56;;;;;;;11.20;5.77;;;;;;;11.56;100.00;100582.00;4974725;28;20634;-83
2022/10/15 04:21:21;;;;;;;12.30;6.18;;;;;;;11.56;100.00;100575.94;4974143;28;20115;-83
2022/10/15 04:23:47;;;;;;;12.60;6.20;;;;;;;11.58;100.00;100576.78;4975216;28;20054;-84
2022/10/15 04:26:12;;;;;;;14.70;6.90;;;;;;;11.58;100.00;100580.25;4974669;28;20042;-83
2022/10/15 04:28:37;;;;;;;16.80;8.00;;;;;;;11.60;100.00;100585.38;4974399;28;20522;-84
2022/10/15 04:31:03;;;;;;;16.33;8.10;;;;;;;11.63;100.00;100587.06;4974697;28;20053;-84
2022/10/15 04:33:28;;;;;;;16.37;7.93;;;;;;;11.65;100.00;100582.69;4974983;28;20045;-84
2022/10/15 04:36:12;;;;;;;15.80;7.97;;;;;;;11.69;100.00;100584.31;4973718;28;20023;-84
2022/10/15 04:38:38;;;;;;;18.75;9.95;;;;;;;11.70;100.00;100571.28;4974737;28;20028;-84
2022/10/15 04:41:05;;;;;;;19.47;10.30;;;;;;;11.72;100.00;100574.69;4974788;28;20025;-83
2022/10/15 04:43:31;;;;;;;17.90;8.85;;;;;;;11.74;100.00;100574.66;4973853;28;20035;-84
2022/10/15 04:45:58;;;;;;;22.05;12.38;;;;;;;11.76;100.00;100572.88;4974164;28;20113;-84
2022/10/15 04:48:26;;;;;;;22.63;13.05;;;;;;;11.79;100.00;100571.94;4973709;28;20559;-84
2022/10/15 04:50:51;;;;;;;20.60;11.40;;;;;;;11.80;100.00;100571.03;4973937;28;20546;-84
2022/10/15 04:53:17;;;;;;;20.87;11.30;;;;;;;11.82;100.00;100572.72;4974649;28;20027;-84
2022/10/15 04:55:42;;;;;;;21.83;11.70;;;;;;;11.83;100.00;100566.63;4973580;28;20440;-83
2022/10/15 04:58:07;;;;;;;20.90;11.10;;;;;;;11.84;100.00;100565.72;4974313;28;20027;-83
2022/10/15 05:00:33;;;;;;;19.47;10.17;;;;;;;11.86;100.00;100570.91;4974429;28;20031;-84
2022/10/15 05:02:58;;;;;;;20.87;10.53;;;;;;;11.88;100.00;100572.56;4973256;28;20391;-83
2022/10/15 05:05:23;;;;;;;23.10;13.10;;;;;;;11.89;100.00;100573.41;4973936;28;20400;-84
2022/10/15 05:07:48;;;;;;;22.50;12.80;;;;;;;11.89;100.00;100566.47;4974299;28;20015;-84
2022/10/15 05:10:14;;;;;;;20.73;10.67;;;;;;;11.90;100.00;100573.41;4973169;28;20117;-83
2022/10/15 05:12:39;;;;;;;19.77;10.03;;;;;;;11.93;100.00;100569.00;4974179;28;20030;-83
2022/10/15 05:15:05;;;;;;;18.40;9.13;;;;;;;11.94;100.00;100568.09;4973542;28;20472;-83
2022/10/15 05:17:30;;;;;;;19.90;10.07;;;;;;;11.95;100.00;100575.00;4973368;28;20027;-83
2022/10/15 05:19:55;;;;;;;21.47;12.10;;;;;;;11.95;100.00;100570.66;4973764;28;20026;-83
2022/10/15 05:22:21;;;;;;;20.60;10.27;;;;;;;11.96;100.00;100577.59;4973886;28;20023;-83
2022/10/15 05:24:46;;;;;;;19.07;10.20;;;;;;;11.97;100.00;100583.63;4972980;28;20031;-83
2022/10/15 05:27:17;;;;;;;18.63;9.40;;;;;;;11.96;100.00;100585.38;4973207;28;20031;-84
2022/10/15 05:29:42;;;;;;;17.75;9.02;;;;;;;11.96;100.00;100581.91;4974189;28;20387;-84
2022/10/15 05:32:08;;;;;;;17.60;8.67;;;;;;;11.96;100.00;100576.72;4973197;28;20019;-84
2022/10/15 05:34:33;;;;;;;16.90;8.37;;;;;;;11.96;100.00;100574.97;4973880;28;20078;-84
2022/10/15 05:36:58;;;;;;;17.07;8.13;;;;;;;11.95;100.00;100572.41;4973792;28;20023;-84
2022/10/15 05:39:24;;;;;;;18.63;9.90;;;;;;;11.95;100.00;100582.81;4972874;28;20392;-84
2022/10/15 05:41:49;;;;;;;20.23;10.70;;;;;;;11.94;100.00;100583.69;4973573;28;20031;-84
2022/10/15 05:44:14;;;;;;;19.97;10.37;;;;;;;11.92;100.00;100577.69;4973705;28;20147;-84
2022/10/15 05:46:40;;;;;;;20.43;10.30;;;;;;;11.92;100.00;100582.91;4972194;28;20545;-84
2022/10/15 05:49:05;;;;;;;17.70;8.80;;;;;;;11.92;100.00;100572.50;4973277;28;20023;-84
2022/10/15 05:51:30;;;;;;;16.80;8.20;;;;;;;11.93;100.00;100571.63;4972915;28;20049;-83
2022/10/15 05:53:57;;;;;;;17.47;8.87;;;;;;;11.92;100.00;100569.91;4973335;28;20097;-85
2022/10/15 05:56:22;;;;;;;19.75;10.70;;;;;;;11.94;100.00;100570.69;4973738;28;20427;-85
2022/10/15 05:58:48;;;;;;;21.63;11.20;;;;;;;11.92;100.00;100572.50;4973141;28;20073;-84
2022/10/15 06:01:14;;;;;;;19.80;10.40;;;;;;;11.93;100.00;100571.63;4973320;28;20037;-84
2022/10/15 06:03:42;;;;;;;18.35;9.57;;;;;;;11.93;100.00;100575.06;4973927;28;20468;-84
2022/10/15 06:06:20;;;;;;;20.60;10.63;;;;;;;11.94;100.00;100578.50;4972286;28;20042;-84
2022/10/15 06:08:46;;;;;;;17.58;8.70;;;;;;;11.95;100.00;100580.19;4973675;28;20081;-84
2022/10/15 06:11:12;;;;;;;17.88;8.45;;;;;;;11.95;100.00;100568.06;4973454;28;20027;-84
2022/10/15 06:13:39;;;;;;;18.40;9.27;;;;;;;11.96;100.00;100576.72;4972864;28;20034;-84
2022/10/15 06:16:05;;;;;;;18.33;9.45;;;;;;;11.98;100.00;100574.97;4973179;28;20101;-84
2022/10/15 06:18:31;;;;;;;17.63;8.63;;;;;;;11.98;100.00;100574.97;4973728;28;20146;-84
2022/10/15 06:20:56;;;;;;;16.97;8.30;;;;;;;12.00;100.00;100570.59;4972840;28;20416;-87
2022/10/15 06:23:23;;;;;;;15.30;6.87;;;;;;;12.01;100.00;100574.91;4973034;28;20278;-84
2022/10/15 06:25:48;;;;;;;19.65;10.20;;;;;;;12.02;100.00;100571.41;4973075;28;20547;-84
2022/10/15 06:28:14;;;;;;;19.23;9.93;;;;;;;12.03;100.00;100573.13;4976423;28;20037;-84
2022/10/15 06:30:39;;;;;;;19.57;9.83;;;;;;;12.03;100.00;100566.16;4976771;28;20101;-84
2022/10/15 06:33:04;;;;;;;19.67;9.83;;;;;;;12.05;100.00;100576.50;4977141;28;20065;-87
2022/10/15 06:35:32;;;;;;;19.17;9.83;;;;;;;12.05;100.00;100577.38;4976393;28;20034;-85
2022/10/15 06:37:59;;;;;;;18.38;9.20;;;;;;;12.07;100.00;100574.72;4976998;28;20070;-86
2022/10/15 06:40:24;;;;;;;18.15;9.32;;;;;;;12.08;100.00;100573.00;4976860;28;20050;-86
2022/10/15 06:42:49;;;;;;;19.30;10.17;;;;;;;12.09;100.00;100569.50;4976170;28;20030;-85
2022/10/15 06:45:15;;;;;;;17.63;8.33;;;;;;;12.13;100.00;100568.50;4976687;28;20035;-85
2022/10/15 06:47:40;;;;;;;22.13;12.03;;;;;;;12.13;100.00;100568.50;4976528;28;20486;-86
2022/10/15 06:50:06;;;;;;;21.13;11.50;;;;;;;12.14;100.00;100573.69;4974901;28;20068;-85
2022/10/15 06:52:32;;;;;;;19.70;10.03;;;;;;;12.14;100.00;100567.63;4976370;28;20035;-86
2022/10/15 06:54:57;;;;;;;18.13;9.10;;;;;;;12.15;100.00;100565.00;4975765;28;20289;-85
2022/10/15 06:57:24;;;;;;;18.17;8.97;;;;;;;12.17;100.00;100565.78;4976678;28;20447;-85
2022/10/15 06:59:50;;;;;;;17.58;8.55;;;;;;;12.17;100.00;100571.00;4976159;28;20030;-85
2022/10/15 07:02:16;;;;;;;18.67;9.43;;;;;;;12.18;100.00;100577.06;4975748;28;20479;-85
2022/10/15 07:04:42;;;;;;;16.75;8.32;;;;;;;12.19;100.00;100570.97;4975986;28;20058;-85
2022/10/15 07:07:07;;;;;;;18.97;9.13;;;;;;;12.20;100.00;100572.69;4976354;28;20411;-86
2022/10/15 07:09:34;;;;;;;19.57;9.87;;;;;;;12.20;100.00;100565.72;4975905;28;20581;-85
2022/10/15 07:11:59;;;;;;;20.15;10.10;;;;;;;12.23;100.00;100567.38;4975664;28;20455;-85
2022/10/15 07:14:25;;;;;;;19.47;9.57;;;;;;;12.30;100.00;100575.88;4976147;28;20070;-86
2022/10/15 07:16:50;;;;;;;16.17;7.90;;;;;;;12.33;100.00;100574.03;4975431;28;20109;-84
2022/10/15 07:19:15;;;;;;;17.37;8.03;;;;;;;12.34;100.00;100582.72;4976225;28;20035;-86
2022/10/15 07:21:40;;;;;;;16.13;8.00;;;;;;;12.34;100.00;100587.91;4976652;28;20026;-86
2022/10/15 07:24:06;;;;;;;14.70;6.90;;;;;;;12.34;100.00;100580.94;4975708;28;20041;-84
2022/10/15 07:26:31;;;;;;;19.17;9.70;;;;;;;12.36;100.00;100584.38;4975747;28;20051;-83
2022/10/15 07:28:57;;;;;;;18.07;9.10;;;;;;;12.39;100.00;100569.56;4975866;28;20031;-85
2022/10/15 07:31:22;;;;;;;17.97;8.73;;;;;;;12.42;100.00;100557.31;4974860;28;20039;-86
2022/10/15 07:33:48;;;;;;;16.93;8.10;;;;;;;12.48;100.00;100551.97;4967668;28;20372;-87
2022/10/15 07:36:13;;;;;;;19.87;9.17;;;;;;;12.58;100.00;100546.50;4956985;29;20035;-88
2022/10/15 07:38:39;;;;;;;17.17;8.60;;;;;;;12.63;100.00;100539.38;4956980;28;20070;-84
2022/10/15 07:41:06;;;;;;;16.10;7.60;;;;;;;12.68;100.00;100542.72;4956356;29;20053;-83
2022/10/15 07:43:32;;;;;;;16.83;7.88;;;;;;;12.71;100.00;100545.25;4956798;28;20448;-84
2022/10/15 07:45:57;;;;;;;15.87;7.00;;;;;;;12.72;100.00;100543.47;4954996;29;20034;-84
2022/10/15 07:48:23;;;;;;;14.30;6.37;;;;;;;12.71;100.00;100542.66;4956727;28;20083;-84
2022/10/15 07:51:00;;;;;;;13.77;6.38;;;;;;;12.69;100.00;100540.97;4955319;28;20515;-84
2022/10/15 07:53:26;;;;;;;;;;;;;;;12.70;100.00;100545.28;4956086;28;20369;-85
2022/10/15 07:55:52;;;;;;;15.02;7.20;;;;;;;12.70;100.00;100543.53;4970073;28;19933;-85
2022/10/15 07:58:17;;;;;;;15.53;7.17;;;;;;;12.73;100.00;100540.81;4974815;28;20058;-88
2022/10/15 08:00:43;;;;;;;16.07;7.03;;;;;;;12.79;100.00;100537.19;4975706;28;20518;-82
2022/10/15 08:03:08;;;;;;;17.77;8.47;;;;;;;12.82;100.00;100526.69;4975794;28;20018;-85
2022/10/15 08:05:33;;;;;;;19.07;9.20;;;;;;;12.90;100.00;100529.06;4974785;28;20110;-84
2022/10/15 08:07:59;;;;;;;17.17;8.30;;;;;;;12.97;100.00;100531.44;4975468;28;20023;-85
2022/10/15 08:10:25;;;;;;;16.80;7.73;;;;;;;13.02;100.00;100533.91;4972753;28;20481;-81
2022/10/15 08:12:51;;;;;;;14.27;6.55;;;;;;;13.05;100.00;100525.16;4964990;28;20015;-91
2022/10/15 08:15:16;;;;;;;15.70;7.13;;;;;;;13.09;100.00;100519.78;4964681;28;20042;-94
2022/10/15 08:17:42;;;;;;;14.53;6.63;;;;;;;13.15;100.00;100512.69;4974221;28;20031;-95
2022/10/15 08:20:07;;;;;;;13.97;6.57;;;;;;;13.20;100.00;100510.78;4968237;28;20093;-88
2022/10/15 08:22:33;;;;;;;16.13;7.60;;;;;;;13.29;100.00;100513.09;4965572;28;20023;-89
2022/10/15 08:24:58;;;;;;;14.13;6.83;;;;;;;13.37;100.00;100513.72;4966182;28;20073;-96
2022/10/15 08:27:24;;;;;;;15.83;7.33;;;;;;;13.44;100.00;100515.25;4967028;28;20519;-92
2022/10/15 08:29:49;;;;;;;14.63;7.00;;;;;;;13.51;100.00;100515.91;4964990;28;20488;-89
2022/10/15 08:32:14;;;;;;;11.93;5.90;;;;;;;13.55;100.00;100520.13;4965455;28;20031;-86
2022/10/15 08:34:39;;;;;;;11.93;5.70;;;;;;;13.58;100.00;100520.00;4962802;28;20015;-88
2022/10/15 08:37:05;;;;;;;11.57;5.47;;;;;;;13.61;100.00;100516.47;4964391;28;20105;-88
2022/10/15 08:39:30;;;;;;;11.27;5.20;;;;;;;13.63;100.00;100509.41;4963191;28;20472;-90
2022/10/15 08:41:58;;;;;;;8.63;4.43;;;;;;;13.64;100.00;100507.69;4962475;28;20023;-88
2022/10/15 08:44:30;;;;;;;12.48;5.80;;;;;;;13.66;100.00;100504.09;4967474;28;20037;-88
2022/10/15 08:47:04;;;;;;;9.82;4.78;;;;;;;13.64;100.00;100498.09;4963955;28;20403;-87
2022/10/15 08:49:49;;;;;;;10.93;5.18;;;;;;;13.67;100.00;100494.53;4961513;28;20039;-88
2022/10/15 08:52:23;;;;;;;11.38;5.47;;;;;;;13.65;100.00;100499.78;4960853;28;20430;-89
2022/10/15 08:54:49;;;;;;;10.90;5.20;;;;;;;13.68;100.00;100497.09;4957762;28;20093;-90
2022/10/15 08:57:33;;;;;;;10.60;5.10;;;;;;;13.71;100.00;100494.38;4968241;28;20019;-88
2022/10/15 09:00:13;;;;;;;8.20;4.50;;;;;;;13.74;100.00;100486.44;4963111;28;20031;-91
2022/10/15 09:02:49;;;;;;;8.05;4.00;;;;;;;13.78;100.00;100483.72;4963367;28;20023;-88
2022/10/15 09:05:27;;;;;;;7.95;4.25;;;;;;;13.80;100.00;100482.75;4955362;29;20476;-87
2022/10/15 09:07:58;;;;;;;8.38;3.80;;;;;;;13.80;100.00;100474.09;4961559;28;20031;-87
2022/10/15 09:10:42;;;;;;;6.40;3.50;;;;;;;13.91;100.00;100471.97;4973407;28;20034;-88
2022/10/15 09:13:26;;;;;;;7.55;3.70;;;;;;;13.86;100.00;100464.31;4974668;28;20407;-87
2022/10/15 09:16:09;;;;;;;7.53;3.97;;;;;;;13.91;100.00;100461.53;4973589;28;20117;-88
2022/10/15 09:18:37;;;;;;;6.53;3.58;;;;;;;13.97;100.00;100465.69;4974232;28;20027;-88
2022/10/15 09:21:04;;;;;;;5.68;3.28;;;;;;;13.99;100.00;100469.94;4974281;28;20054;-87
2022/10/15 09:23:32;;;;;;;5.43;3.33;;;;;;;13.99;100.00;100459.50;4973983;28;20070;-89
2022/10/15 09:26:20;;;;;;;6.10;3.47;;;;;;;14.01;100.00;100464.69;4973677;28;20114;-86
2022/10/15 09:29:02;;;;;;;4.80;3.00;;;;;;;14.02;100.00;100462.00;4974472;28;20031;-83
2022/10/15 09:31:40;;;;;;;5.82;3.30;;;;;;;14.05;100.00;100463.66;4964842;28;20082;-87
2022/10/15 09:34:20;;;;;;;6.10;3.45;;;;;;;14.06;100.00;100462.75;4971002;28;20085;-87
2022/10/15 09:37:12;;;;;;;6.55;3.58;;;;;;;14.07;100.00;100456.63;4972253;28;20027;-86
2022/10/15 09:39:55;;;;;;;6.00;3.35;;;;;;;14.07;100.00;100461.00;4955218;29;20051;-88
2022/10/15 09:42:27;;;;;;;6.18;3.60;;;;;;;14.05;100.00;100451.47;4959839;28;20016;-88
2022/10/15 09:44:55;;;;;;;6.05;3.60;;;;;;;14.06;100.00;100452.31;4966761;28;20038;-88
2022/10/15 09:47:26;;;;;;;6.70;3.75;;;;;;;14.08;100.00;100454.84;4973030;28;20034;-80
2022/10/15 09:49:51;;;;;;;7.50;3.88;;;;;;;14.07;100.00;100451.41;4973821;28;20031;-88
2022/10/15 09:52:45;;;;;;;6.73;3.70;;;;;;;14.08;100.00;100447.88;4974128;28;20027;-88
2022/10/15 09:55:29;;;;;;;6.57;3.80;;;;;;;14.05;100.00;100448.00;4972090;28;20102;-87
2022/10/15 09:57:59;;;;;;;6.90;3.90;;;;;;;14.04;100.00;100452.38;4958937;28;20032;-87
2022/10/15 10:00:24;;;;;;;6.15;3.40;;;;;;;14.04;100.00;100448.88;4963588;28;20027;-87
2022/10/15 10:03:05;;;;;;;3.93;2.80;;;;;;;14.04;100.00;100444.53;4972036;28;20023;-87
2022/10/15 10:05:35;;;;;;;4.60;3.10;;;;;;;14.04;100.00;100438.44;4969901;28;20026;-89
2022/10/15 10:08:18;;;;;;;4.25;2.80;;;;;;;14.06;100.00;100441.88;4973570;28;20027;-85
2022/10/15 10:10:44;;;;;;;4.72;3.00;;;;;;;14.09;100.00;100435.69;4960489;28;20039;-89
2022/10/15 10:13:23;;;;;;;4.47;2.90;;;;;;;14.10;100.00;100434.78;4957942;28;20027;-93
2022/10/15 10:15:51;;;;;;;4.15;2.75;;;;;;;14.11;100.00;100431.25;4959536;29;20027;-96
2022/10/15 10:18:22;;;;;;;5.43;2.80;;;;;;;14.13;100.00;100432.06;4959260;28;20618;-94
2022/10/15 10:21:21;;;;;;;4.00;2.50;;;;;;;14.18;100.00;100422.31;4961874;28;20047;-88
2022/10/15 10:23:46;;;;;;;3.90;2.60;;;;;;;14.23;100.00;100424.75;4977937;28;20102;-88
2022/10/15 10:26:12;;;;;;;3.13;2.50;;;;;;;14.25;100.00;100434.22;4977576;28;20185;-90
2022/10/15 10:28:50;;;;;;;3.78;2.30;;;;;;;14.27;100.00;100436.75;4978102;28;20019;-90
2022/10/15 10:31:16;;;;;;;4.63;2.80;;;;;;;14.31;100.00;100427.91;4970196;28;20074;-87
2022/10/15 10:33:43;;;;;;;3.92;2.83;;;;;;;14.34;100.00;100431.25;4971562;28;20158;-87
2022/10/15 10:36:18;;;;;;;2.90;2.30;;;;;;;14.41;100.00;100437.09;4956283;29;20031;-86
2022/10/15 10:39:13;;;;;;;2.75;2.20;;;;;;;14.45;100.00;100437.81;4957951;28;20066;-87
2022/10/15 10:42:00;;;;;;;2.33;2.13;;;;;;;14.46;100.00;100445.63;4958161;28;20023;-88
2022/10/15 10:44:37;;;;;;;3.03;2.17;;;;;;;14.48;100.00;100440.34;4975536;28;20086;-88
2022/10/15 10:47:24;;;;;;;2.58;2.10;;;;;;;14.51;100.00;100435.00;4975947;28;20030;-87
2022/10/15 10:49:52;;;;;;;2.10;1.90;;;;;;;14.54;100.00;100432.25;4976653;28;20101;-87
2022/10/15 10:52:32;;;;;;;2.22;1.80;;;;;;;14.56;100.00;100433.03;4977056;28;20522;-87
2022/10/15 10:55:17;;;;;;;1.85;1.73;;;;;;;14.62;100.00;100434.56;4964836;28;20051;-87
2022/10/15 10:57:47;;;;;;;2.13;1.92;;;;;;;14.61;100.00;100438.97;4967657;28;20756;-88
2022/10/15 11:00:24;;;;;;;2.22;2.03;;;;;;;14.64;100.00;100430.16;4973588;28;20035;-87
2022/10/15 11:02:51;;;;;;;1.92;1.83;;;;;;;14.68;100.00;100429.16;4964999;28;20110;-86
2022/10/15 11:05:24;;;;;;;1.80;1.70;;;;;;;14.71;100.00;100425.56;4974272;28;20053;-86
2022/10/15 11:07:59;;;;;;;1.80;1.70;;;;;;;14.76;100.00;100421.00;4975995;28;20089;-87
2022/10/15 11:10:32;;;;;;;2.00;1.90;;;;;;;14.79;100.00;100421.75;4975711;28;20027;-87
2022/10/15 11:13:23;;;;;;;2.03;1.80;;;;;;;14.85;100.00;100430.25;4975069;28;20031;-87
2022/10/15 11:15:58;;;;;;;1.75;1.65;;;;;;;14.89;100.00;100426.59;4975683;28;20031;-87
2022/10/15 11:18:35;;;;;;;2.00;1.90;;;;;;;14.93;100.00;100421.19;4957472;28;20054;-87
2022/10/15 11:21:13;;;;;;;1.80;1.70;;;;;;;15.00;100.00;100420.94;4959862;28;20696;-88
2022/10/15 11:24:07;;;;;;;2.20;2.00;;;;;;;15.09;100.00;100421.41;4967466;28;20400;-85
2022/10/15 11:26:51;;;;;;;2.00;1.90;;;;;;;15.16;100.00;100415.91;4974789;28;20034;-87